createdAt,value
2019-03-01T00:01:59.265Z,36.65
2019-03-01T00:04:55.617Z,36.68
2019-03-01T00:08:01.492Z,36.72
2019-03-01T00:10:56.725Z,36.73
2019-03-01T00:13:52.400Z,36.76
2019-03-01T00:17:10.339Z,36.81
2019-03-01T00:20:19.972Z,36.83
2019-03-01T00:23:24.582Z,36.89
2019-03-01T00:26:35.484Z,36.93
2019-03-01T00:29:45.894Z,36.96
2019-03-01T00:32:58.785Z,37.04
2019-03-01T00:36:17.691Z,37.06
2019-03-01T00:39:05.286Z,37.08
2019-03-01T00:42:24.366Z,37.11
2019-03-01T00:44:53.229Z,37.14
2019-03-01T00:47:22.137Z,37.18
2019-03-01T00:49:50.923Z,37.20
2019-03-01T00:52:19.810Z,37.22
2019-03-01T00:54:48.557Z,37.22
2019-03-01T00:57:17.543Z,37.22
2019-03-01T00:59:46.358Z,37.25
2019-03-01T01:02:15.237Z,37.26
2019-03-01T01:04:43.939Z,37.30
2019-03-01T01:07:12.664Z,37.33
2019-03-01T01:09:41.528Z,37.34
2019-03-01T01:12:10.664Z,37.35
2019-03-01T01:14:39.533Z,37.38
2019-03-01T01:17:08.426Z,37.39
2019-03-01T01:19:37.218Z,37.40
2019-03-01T01:22:05.922Z,37.44
2019-03-01T01:24:34.762Z,37.43
2019-03-01T01:27:03.631Z,37.45
2019-03-01T01:29:32.470Z,37.50
2019-03-01T01:32:01.367Z,37.53
2019-03-01T01:34:30.184Z,37.53
2019-03-01T01:36:58.995Z,37.55
2019-03-01T01:39:27.813Z,37.57
2019-03-01T01:41:56.626Z,37.60
2019-03-01T01:44:25.349Z,37.60
2019-03-01T01:46:54.177Z,37.62
2019-03-01T01:49:22.991Z,37.65
2019-03-01T01:51:51.821Z,37.65
2019-03-01T01:54:20.623Z,37.67
2019-03-01T01:56:49.469Z,37.71
2019-03-01T01:59:18.211Z,37.70
2019-03-01T02:01:47.119Z,37.75
2019-03-01T02:04:16.023Z,37.74
2019-03-01T02:06:44.833Z,37.79
2019-03-01T02:09:24.941Z,37.79
2019-03-01T02:11:53.760Z,37.82
2019-03-01T02:14:22.562Z,37.84
2019-03-01T02:16:51.427Z,37.86
2019-03-01T02:19:20.273Z,37.88
2019-03-01T02:21:49.226Z,37.92
2019-03-01T02:24:18.026Z,37.93
2019-03-01T02:26:46.894Z,37.92
2019-03-01T02:29:15.728Z,37.96
2019-03-01T02:31:58.748Z,37.96
2019-03-01T02:34:27.560Z,37.99
2019-03-01T02:36:56.442Z,38.00
2019-03-01T02:39:25.289Z,38.03
2019-03-01T02:41:55.476Z,38.02
2019-03-01T02:44:24.216Z,38.02
2019-03-01T02:46:53.037Z,38.05
2019-03-01T02:49:21.926Z,38.05
2019-03-01T02:51:50.731Z,38.07
2019-03-01T02:54:19.493Z,38.09
2019-03-01T02:56:48.395Z,38.12
2019-03-01T02:59:17.326Z,38.12
2019-03-01T03:01:46.052Z,38.14
2019-03-01T03:04:14.936Z,38.14
2019-03-01T03:06:51.782Z,38.19
2019-03-01T03:09:20.521Z,38.17
2019-03-01T03:11:49.336Z,38.21
2019-03-01T03:14:18.212Z,38.21
2019-03-01T03:16:47.103Z,38.24
2019-03-01T03:19:15.964Z,38.24
2019-03-01T03:21:44.780Z,38.25
2019-03-01T03:24:13.584Z,38.26
2019-03-01T03:26:42.340Z,38.28
2019-03-01T03:29:11.150Z,38.31
2019-03-01T03:31:39.967Z,38.32
2019-03-01T03:34:08.713Z,38.32
2019-03-01T03:36:37.518Z,38.31
2019-03-01T03:39:08.907Z,38.32
2019-03-01T03:41:37.712Z,38.36
2019-03-01T03:44:06.485Z,38.39
2019-03-01T03:46:35.292Z,38.38
2019-03-01T03:49:04.123Z,38.41
2019-03-01T03:51:33.046Z,38.39
2019-03-01T03:54:01.970Z,38.42
2019-03-01T03:56:30.817Z,38.44
2019-03-01T03:58:59.752Z,38.47
2019-03-01T04:01:28.553Z,38.47
2019-03-01T04:03:57.354Z,38.49
2019-03-01T04:06:26.244Z,38.48
2019-03-01T04:08:55.131Z,38.52
2019-03-01T04:11:23.867Z,38.50
2019-03-01T04:13:52.604Z,38.53
2019-03-01T04:16:21.522Z,38.54
2019-03-01T04:18:50.298Z,38.55
2019-03-01T04:21:19.261Z,38.65
2019-03-01T04:23:49.142Z,38.67
2019-03-01T04:26:17.957Z,38.66
2019-03-01T04:28:46.798Z,38.63
2019-03-01T04:31:15.581Z,38.66
2019-03-01T04:33:44.379Z,38.68
2019-03-01T04:36:13.316Z,38.69
2019-03-01T04:38:42.290Z,38.73
2019-03-01T04:41:11.206Z,38.73
2019-03-01T04:43:39.939Z,38.72
2019-03-01T04:46:08.779Z,38.73
2019-03-01T04:48:37.532Z,38.75
2019-03-01T04:51:06.442Z,38.76
2019-03-01T04:53:35.287Z,38.78
2019-03-01T04:56:04.151Z,38.84
2019-03-01T04:58:33.012Z,38.82
2019-03-01T05:01:02.067Z,38.88
2019-03-01T05:03:30.822Z,38.85
2019-03-01T05:05:59.653Z,38.85
2019-03-01T05:08:28.463Z,38.90
2019-03-01T05:10:57.352Z,38.87
2019-03-01T05:13:26.234Z,38.91
2019-03-01T05:15:55.067Z,38.90
2019-03-01T05:18:23.876Z,38.92
2019-03-01T05:20:52.735Z,38.93
2019-03-01T05:23:21.607Z,38.95
2019-03-01T05:25:50.405Z,38.93
2019-03-01T05:28:19.311Z,39.03
2019-03-01T05:30:48.188Z,39.02
2019-03-01T05:33:16.931Z,39.05
2019-03-01T05:35:45.743Z,39.05
2019-03-01T05:38:21.517Z,39.05
2019-03-01T05:40:45.111Z,39.04
2019-03-01T05:43:13.992Z,39.09
2019-03-01T05:45:42.926Z,39.07
2019-03-01T05:48:11.744Z,39.12
2019-03-01T05:50:40.543Z,39.14
2019-03-01T05:53:09.262Z,39.17
2019-03-01T05:55:38.118Z,39.20
2019-03-01T05:58:26.841Z,39.29
2019-03-01T06:00:56.749Z,39.11
2019-03-01T06:03:58.383Z,39.17
2019-03-01T06:06:36.358Z,39.17
2019-03-01T06:09:23.052Z,39.23
2019-03-01T06:12:23.862Z,39.18
2019-03-01T06:15:37.632Z,39.27
2019-03-01T06:18:32.197Z,39.31
2019-03-01T06:21:18.159Z,39.32
2019-03-01T06:23:56.583Z,39.36
2019-03-01T06:26:56.930Z,39.35
2019-03-01T06:29:54.939Z,39.37
2019-03-01T06:33:06.615Z,39.42
2019-03-01T06:36:24.895Z,39.38
2019-03-01T06:39:49.727Z,39.52
2019-03-01T06:42:58.487Z,39.40
2019-03-01T06:45:48.409Z,39.63
2019-03-01T06:48:54.656Z,39.57
2019-03-01T06:51:29.451Z,39.55
2019-03-01T06:53:58.333Z,39.50
2019-03-01T06:56:27.166Z,39.41
2019-03-01T06:59:01.462Z,39.32
2019-03-01T07:01:49.367Z,39.21
2019-03-01T07:04:19.000Z,39.17
2019-03-01T07:06:47.977Z,39.07
2019-03-01T07:09:16.926Z,38.99
2019-03-01T07:11:45.683Z,38.93
2019-03-01T07:14:14.534Z,38.91
2019-03-01T07:16:43.466Z,39.02
2019-03-01T07:19:12.498Z,39.34
2019-03-01T07:21:41.321Z,39.36
2019-03-01T07:24:10.506Z,39.23
2019-03-01T07:26:39.682Z,39.35
2019-03-01T07:29:08.768Z,39.33
2019-03-01T07:31:37.622Z,39.34
2019-03-01T07:34:06.485Z,39.30
2019-03-01T07:36:35.444Z,39.10
2019-03-01T07:39:05.107Z,39.19
2019-03-01T07:41:33.916Z,39.21
2019-03-01T07:44:02.853Z,39.20
2019-03-01T07:46:31.715Z,39.16
2019-03-01T07:49:00.605Z,39.16
2019-03-01T07:51:30.710Z,39.08
2019-03-01T07:54:00.065Z,39.04
2019-03-01T07:56:28.917Z,38.64
2019-03-01T07:59:00.294Z,38.69
2019-03-01T08:01:29.224Z,39.24
2019-03-01T08:03:58.913Z,39.79
2019-03-01T08:06:27.719Z,40.05
2019-03-01T08:08:56.496Z,40.51
2019-03-01T08:11:28.461Z,40.66
2019-03-01T08:13:55.824Z,40.94
2019-03-01T08:16:25.350Z,41.00
2019-03-01T08:18:54.454Z,41.18
2019-03-01T08:21:23.344Z,41.24
2019-03-01T08:23:52.277Z,41.14
2019-03-01T08:26:21.278Z,41.01
2019-03-01T08:28:50.062Z,40.95
2019-03-01T08:31:21.112Z,40.79
2019-03-01T08:33:49.641Z,40.77
2019-03-01T08:36:18.435Z,40.69
2019-03-01T08:38:47.316Z,40.70
2019-03-01T08:41:16.119Z,40.59
2019-03-01T08:43:48.165Z,40.62
2019-03-01T08:46:15.572Z,40.58
2019-03-01T08:48:44.524Z,40.57
2019-03-01T08:51:13.398Z,40.55
2019-03-01T08:53:42.371Z,40.62
2019-03-01T08:56:14.670Z,40.58
2019-03-01T08:58:42.522Z,40.64
2019-03-01T09:01:12.268Z,40.67
2019-03-01T09:03:45.344Z,40.63
2019-03-01T09:06:13.326Z,40.64
2019-03-01T09:08:43.004Z,40.70
2019-03-01T09:11:12.959Z,40.90
2019-03-01T09:13:41.883Z,40.86
2019-03-01T09:16:10.833Z,40.83
2019-03-01T09:18:39.629Z,41.13
2019-03-01T09:21:12.243Z,41.23
2019-03-01T09:23:39.754Z,41.21
2019-03-01T09:26:08.646Z,41.22
2019-03-01T09:28:39.642Z,41.45
2019-03-01T09:31:08.128Z,41.51
2019-03-01T09:33:36.976Z,41.92
2019-03-01T09:36:27.912Z,41.65
2019-03-01T09:38:56.995Z,41.75
2019-03-01T09:41:25.817Z,41.51
2019-03-01T09:43:54.721Z,41.42
2019-03-01T09:46:24.432Z,41.50
2019-03-01T09:48:54.383Z,41.55
2019-03-01T09:51:23.222Z,41.68
2019-03-01T09:53:52.155Z,41.75
2019-03-01T09:56:21.059Z,41.69
2019-03-01T09:58:50.265Z,41.68
2019-03-01T10:01:19.917Z,41.83
2019-03-01T10:03:49.656Z,41.94
2019-03-01T10:06:18.407Z,42.07
2019-03-01T10:08:47.404Z,42.04
2019-03-01T10:11:16.338Z,41.92
2019-03-01T10:13:45.254Z,42.02
2019-03-01T10:16:14.159Z,41.72
2019-03-01T10:18:43.059Z,41.74
2019-03-01T10:21:11.936Z,41.59
2019-03-01T10:23:40.739Z,41.61
2019-03-01T10:26:09.539Z,41.63
2019-03-01T10:28:38.668Z,41.60
2019-03-01T10:31:07.413Z,41.54
2019-03-01T10:33:36.252Z,41.56
2019-03-01T10:36:05.152Z,41.51
2019-03-01T10:38:34.122Z,41.59
2019-03-01T10:41:02.941Z,41.48
2019-03-01T10:43:31.927Z,41.61
2019-03-01T10:46:01.782Z,41.63
2019-03-01T10:48:30.657Z,41.44
2019-03-01T10:50:59.456Z,41.44
2019-03-01T10:53:28.347Z,41.55
2019-03-01T10:55:57.199Z,41.54
2019-03-01T10:58:26.083Z,41.67
2019-03-01T11:00:54.897Z,41.60
2019-03-01T11:03:23.965Z,41.72
2019-03-01T11:05:53.094Z,41.61
2019-03-01T11:08:21.997Z,41.72
2019-03-01T11:10:51.061Z,41.68
2019-03-01T11:13:20.061Z,41.68
2019-03-01T11:15:48.960Z,41.77
2019-03-01T11:18:17.936Z,41.68
2019-03-01T11:20:46.903Z,41.68
2019-03-01T11:23:15.901Z,41.58
2019-03-01T11:25:44.872Z,41.56
2019-03-01T11:28:13.775Z,41.63
2019-03-01T11:30:42.634Z,41.57
2019-03-01T11:33:11.507Z,41.72
2019-03-01T11:35:40.462Z,41.83
2019-03-01T11:38:09.336Z,41.79
2019-03-01T11:40:38.180Z,41.87
2019-03-01T11:43:07.210Z,42.17
2019-03-01T11:45:36.062Z,41.86
2019-03-01T11:48:05.102Z,41.43
2019-03-01T11:50:34.082Z,41.28
2019-03-01T11:53:03.844Z,41.20
2019-03-01T11:55:32.835Z,41.21
2019-03-01T11:58:01.774Z,41.13
2019-03-01T12:00:30.739Z,41.10
2019-03-01T12:02:59.685Z,41.17
2019-03-01T12:05:28.635Z,41.13
2019-03-01T12:07:57.598Z,41.38
2019-03-01T12:10:26.555Z,41.46
2019-03-01T12:12:55.471Z,41.73
2019-03-01T12:15:24.287Z,41.60
2019-03-01T12:17:53.374Z,41.41
2019-03-01T12:20:22.845Z,41.78
2019-03-01T12:22:51.830Z,41.57
2019-03-01T12:25:20.774Z,41.43
2019-03-01T12:27:50.005Z,41.38
2019-03-01T12:30:20.653Z,41.95
2019-03-01T12:32:49.853Z,42.22
2019-03-01T12:35:18.798Z,41.67
2019-03-01T12:37:47.836Z,41.69
2019-03-01T12:40:21.948Z,41.79
2019-03-01T12:42:51.104Z,41.77
2019-03-01T12:45:20.074Z,41.78
2019-03-01T12:47:49.378Z,41.78
2019-03-01T12:50:18.308Z,41.84
2019-03-01T12:52:47.278Z,41.91
2019-03-01T12:55:17.614Z,42.08
2019-03-01T12:57:46.583Z,42.12
2019-03-01T13:00:18.781Z,42.12
2019-03-01T13:02:47.692Z,42.04
2019-03-01T13:05:16.630Z,42.09
2019-03-01T13:07:45.913Z,42.03
2019-03-01T13:10:25.970Z,41.99
2019-03-01T13:12:54.979Z,41.63
2019-03-01T13:15:23.963Z,41.54
2019-03-01T13:17:52.849Z,41.72
2019-03-01T13:20:21.787Z,41.84
2019-03-01T13:22:50.729Z,41.82
2019-03-01T13:25:19.707Z,41.81
2019-03-01T13:27:52.138Z,42.02
2019-03-01T13:30:20.809Z,42.28
2019-03-01T13:32:49.769Z,42.15
2019-03-01T13:35:22.250Z,42.08
2019-03-01T13:37:52.018Z,42.00
2019-03-01T13:40:20.842Z,42.03
2019-03-01T13:43:13.136Z,41.98
2019-03-01T13:45:43.052Z,41.84
2019-03-01T13:48:12.563Z,41.80
2019-03-01T13:50:42.416Z,41.70
2019-03-01T13:53:11.502Z,41.65
2019-03-01T13:55:40.996Z,41.58
2019-03-01T13:58:10.087Z,41.43
2019-03-01T14:00:39.421Z,41.43
2019-03-01T14:03:08.551Z,41.41
2019-03-01T14:05:37.820Z,41.22
2019-03-01T14:08:09.275Z,41.16
2019-03-01T14:10:38.542Z,41.34
2019-03-01T14:13:11.251Z,41.43
2019-03-01T14:15:40.470Z,41.39
2019-03-01T14:18:09.697Z,41.46
2019-03-01T14:20:38.698Z,41.44
2019-03-01T14:23:07.979Z,41.30
2019-03-01T14:25:38.599Z,41.01
2019-03-01T14:28:07.969Z,40.52
2019-03-01T14:30:37.120Z,40.52
2019-03-01T14:33:06.342Z,40.38
2019-03-01T14:35:35.556Z,40.25
2019-03-01T14:38:04.899Z,40.15
2019-03-01T14:40:34.102Z,40.06
2019-03-01T14:43:03.332Z,39.94
2019-03-01T14:45:32.628Z,39.85
2019-03-01T14:48:05.114Z,39.76
2019-03-01T14:50:33.626Z,39.72
2019-03-01T14:53:03.263Z,39.62
2019-03-01T14:55:35.344Z,39.46
2019-03-01T14:58:08.548Z,39.34
2019-03-01T15:00:51.230Z,39.33
2019-03-01T15:03:31.611Z,39.09
2019-03-01T15:06:00.695Z,39.21
2019-03-01T15:08:29.855Z,39.18
2019-03-01T15:11:04.409Z,39.23
2019-03-01T15:13:34.783Z,39.22
2019-03-01T15:16:04.768Z,39.16
2019-03-01T15:18:33.752Z,39.11
2019-03-01T15:21:03.010Z,39.05
2019-03-01T15:23:32.173Z,38.98
2019-03-01T15:26:01.238Z,38.96
2019-03-01T15:28:30.286Z,39.08
2019-03-01T15:30:59.323Z,39.19
2019-03-01T15:33:28.333Z,39.19
2019-03-01T15:35:57.490Z,38.85
2019-03-01T15:38:27.691Z,38.13
2019-03-01T15:40:57.421Z,37.73
2019-03-01T15:43:30.009Z,37.24
2019-03-01T15:45:58.214Z,36.95
2019-03-01T15:48:27.343Z,36.81
2019-03-01T15:50:58.964Z,36.58
2019-03-01T15:53:27.280Z,36.39
2019-03-01T15:55:56.285Z,36.27
2019-03-01T15:58:29.207Z,35.96
2019-03-01T16:00:56.909Z,36.09
2019-03-01T16:03:25.991Z,36.07
2019-03-01T16:05:55.178Z,36.06
2019-03-01T16:08:24.390Z,36.02
2019-03-01T16:10:53.952Z,35.98
2019-03-01T16:13:24.368Z,35.97
2019-03-01T16:15:53.437Z,35.97
2019-03-01T16:18:22.779Z,35.92
2019-03-01T16:20:51.930Z,35.92
2019-03-01T16:23:20.911Z,35.92
2019-03-01T16:25:53.038Z,35.92
2019-03-01T16:28:20.854Z,35.94
2019-03-01T16:30:53.119Z,35.74
2019-03-01T16:33:22.450Z,35.80
2019-03-01T16:35:52.475Z,35.60
2019-03-01T16:38:21.591Z,35.87
2019-03-01T16:40:50.690Z,35.92
2019-03-01T16:43:19.723Z,36.10
2019-03-01T16:45:48.852Z,36.11
2019-03-01T16:48:17.927Z,36.21
2019-03-01T16:50:46.961Z,36.31
2019-03-01T16:53:16.125Z,36.40
2019-03-01T16:55:45.252Z,36.42
2019-03-01T16:58:14.236Z,36.45
2019-03-01T17:00:43.219Z,36.30
2019-03-01T17:03:16.592Z,36.26
2019-03-01T17:05:43.882Z,36.26
2019-03-01T17:08:12.848Z,36.28
2019-03-01T17:10:41.903Z,36.31
2019-03-01T17:13:10.955Z,36.29
2019-03-01T17:15:40.030Z,36.38
2019-03-01T17:18:12.296Z,36.51
2019-03-01T17:20:39.851Z,36.54
2019-03-01T17:23:11.304Z,36.58
2019-03-01T17:25:40.105Z,36.53
2019-03-01T17:28:09.311Z,36.55
2019-03-01T17:30:38.474Z,36.33
2019-03-01T17:33:09.760Z,36.52
2019-03-01T17:35:40.922Z,36.62
2019-03-01T17:38:09.397Z,36.65
2019-03-01T17:40:38.972Z,36.75
2019-03-01T17:43:08.075Z,36.59
2019-03-01T17:45:37.557Z,36.58
2019-03-01T17:48:06.753Z,36.65
2019-03-01T17:50:35.892Z,36.58
2019-03-01T17:53:06.081Z,36.51
2019-03-01T17:55:37.597Z,36.36
2019-03-01T17:58:08.825Z,36.11
2019-03-01T18:00:38.945Z,36.34
2019-03-01T18:03:08.191Z,36.52
2019-03-01T18:05:40.574Z,36.53
2019-03-01T18:08:08.410Z,36.50
2019-03-01T18:10:37.613Z,36.62
2019-03-01T18:13:07.013Z,36.53
2019-03-01T18:15:36.014Z,36.57
2019-03-01T18:18:05.170Z,36.55
2019-03-01T18:20:37.591Z,36.59
2019-03-01T18:23:05.441Z,36.63
2019-03-01T18:25:34.683Z,36.77
2019-03-01T18:28:03.931Z,36.56
2019-03-01T18:30:33.071Z,36.29
2019-03-01T18:33:02.267Z,36.13
2019-03-01T18:35:31.754Z,35.97
2019-03-01T18:38:01.078Z,36.19
2019-03-01T18:40:30.548Z,36.22
2019-03-01T18:42:59.791Z,36.06
2019-03-01T18:45:28.863Z,35.96
2019-03-01T18:47:58.202Z,35.54
2019-03-01T18:50:31.336Z,35.72
2019-03-01T18:53:00.419Z,35.68
2019-03-01T18:55:32.311Z,35.63
2019-03-01T18:58:01.903Z,35.58
2019-03-01T19:00:35.675Z,35.48
2019-03-01T19:03:05.489Z,35.39
2019-03-01T19:05:36.567Z,35.33
2019-03-01T19:08:06.882Z,35.24
2019-03-01T19:10:36.963Z,35.20
2019-03-01T19:13:12.390Z,35.22
2019-03-01T19:15:42.400Z,35.13
2019-03-01T19:18:13.586Z,35.15
2019-03-01T19:20:43.907Z,35.10
2019-03-01T19:23:14.329Z,35.19
2019-03-01T19:25:45.007Z,35.18
2019-03-01T19:28:15.130Z,35.28
2019-03-01T19:30:45.954Z,35.27
2019-03-01T19:33:17.876Z,35.33
2019-03-01T19:35:48.152Z,35.36
2019-03-01T19:38:21.712Z,35.40
2019-03-01T19:40:53.435Z,35.25
2019-03-01T19:43:23.875Z,35.00
2019-03-01T19:45:54.394Z,35.21
2019-03-01T19:48:25.154Z,35.53
2019-03-01T19:50:58.538Z,35.73
2019-03-01T19:53:28.513Z,35.73
2019-03-01T19:55:58.836Z,35.75
2019-03-01T19:58:29.570Z,35.68
2019-03-01T20:00:59.212Z,35.87
2019-03-01T20:03:29.758Z,35.83
2019-03-01T20:06:00.380Z,35.96
2019-03-01T20:08:30.961Z,36.04
2019-03-01T20:11:02.404Z,36.09
2019-03-01T20:13:34.974Z,36.16
2019-03-01T20:16:05.765Z,36.17
2019-03-01T20:18:36.913Z,36.15
2019-03-01T20:21:09.456Z,36.12
2019-03-01T20:23:40.004Z,36.09
2019-03-01T20:26:10.664Z,36.09
2019-03-01T20:28:41.514Z,36.07
2019-03-01T20:31:12.420Z,36.03
2019-03-01T20:33:43.275Z,36.06
2019-03-01T20:36:17.710Z,36.10
2019-03-01T20:38:46.420Z,36.11
2019-03-01T20:41:16.645Z,36.10
2019-03-01T20:43:49.281Z,36.09
2019-03-01T20:46:20.219Z,36.05
2019-03-01T20:48:50.923Z,36.06
2019-03-01T20:51:26.324Z,36.04
2019-03-01T20:53:53.521Z,36.06
2019-03-01T20:56:24.150Z,36.02
2019-03-01T20:58:55.410Z,36.02
2019-03-01T21:01:28.436Z,35.99
2019-03-01T21:03:58.166Z,35.98
2019-03-01T21:06:28.907Z,36.02
2019-03-01T21:09:00.684Z,36.02
2019-03-01T21:11:31.824Z,36.06
2019-03-01T21:14:02.095Z,36.04
2019-03-01T21:16:32.659Z,36.10
2019-03-01T21:19:05.724Z,36.12
2019-03-01T21:21:34.964Z,36.16
2019-03-01T21:24:05.138Z,36.15
2019-03-01T21:26:35.635Z,36.25
2019-03-01T21:29:08.876Z,36.28
2019-03-01T21:31:38.168Z,36.24
2019-03-01T21:34:07.586Z,36.26
2019-03-01T21:36:37.638Z,36.39
2019-03-01T21:39:08.294Z,36.45
2019-03-01T21:41:41.274Z,36.52
2019-03-01T21:44:10.602Z,36.42
2019-03-01T21:46:40.815Z,36.10
2019-03-01T21:49:10.661Z,36.01
2019-03-01T21:51:40.469Z,35.77
2019-03-01T21:54:12.606Z,35.46
2019-03-01T21:56:55.545Z,35.28
2019-03-01T21:59:17.324Z,35.10
2019-03-01T22:01:45.390Z,34.92
2019-03-01T22:04:14.588Z,34.77
2019-03-01T22:06:44.389Z,34.68
2019-03-01T22:09:13.737Z,34.60
2019-03-01T22:11:45.774Z,34.50
2019-03-01T22:14:14.323Z,34.51
2019-03-01T22:16:43.370Z,34.42
2019-03-01T22:19:12.542Z,34.40
2019-03-01T22:21:41.955Z,34.34
2019-03-01T22:24:11.524Z,34.27
2019-03-01T22:26:41.216Z,34.22
2019-03-01T22:29:12.109Z,34.23
2019-03-01T22:31:41.472Z,34.26
2019-03-01T22:34:10.565Z,34.23
2019-03-01T22:36:39.849Z,34.29
2019-03-01T22:39:09.047Z,34.31
2019-03-01T22:41:39.425Z,34.37
2019-03-01T22:44:09.437Z,34.40
2019-03-01T22:46:38.502Z,34.46
2019-03-01T22:49:07.669Z,34.50
2019-03-01T22:51:36.955Z,34.56
2019-03-01T22:54:05.954Z,34.66
2019-03-01T22:56:35.465Z,34.73
2019-03-01T22:59:04.607Z,34.77
2019-03-01T23:01:41.068Z,34.82
2019-03-01T23:04:10.197Z,34.94
2019-03-01T23:06:39.372Z,34.95
2019-03-01T23:09:11.599Z,35.07
2019-03-01T23:11:40.771Z,35.11
2019-03-01T23:14:10.073Z,35.21
2019-03-01T23:16:39.143Z,35.22
2019-03-01T23:19:08.257Z,35.32
2019-03-01T23:21:37.247Z,35.39
2019-03-01T23:24:06.478Z,35.46
2019-03-01T23:26:35.580Z,35.50
2019-03-01T23:29:04.560Z,35.55
2019-03-01T23:31:35.621Z,35.62
2019-03-01T23:34:06.963Z,35.66
2019-03-01T23:36:35.360Z,35.70
2019-03-01T23:39:04.498Z,35.75
2019-03-01T23:41:33.505Z,35.79
2019-03-01T23:44:02.787Z,35.83
2019-03-01T23:46:33.228Z,35.87
2019-03-01T23:49:06.241Z,35.89
2019-03-01T23:51:32.983Z,35.95
2019-03-01T23:54:01.961Z,36.01
2019-03-01T23:56:30.973Z,36.07
2019-03-01T23:58:59.962Z,36.11
